sensor_id;sensor_type;location;lat;lon;timestamp;pressure;altitude;pressure_sealevel;temperature;humidity
38038;BME280;23843;51.320;12.340;2023-08-17T00:00:29;100626.06;;;22.28;100.00
38038;BME280;23843;51.320;12.340;2023-08-17T00:02:55;100630.63;;;22.28;100.00
38038;BME280;23843;51.320;12.340;2023-08-17T00:05:22;100625.22;;;22.28;100.00
38038;BME280;23843;51.320;12.340;2023-08-17T00:07:47;100620.84;;;22.27;100.00
38038;BME280;23843;51.320;12.340;2023-08-17T00:10:13;100623.81;;;22.23;100.00
38038;BME280;23843;51.320;12.340;2023-08-17T00:12:38;100623.81;;;22.23;100.00
38038;BME280;23843;51.320;12.340;2023-08-17T00:15:05;100630.25;;;22.22;100.00
38038;BME280;23843;51.320;12.340;2023-08-17T00:17:30;100625.41;;;22.16;100.00
38038;BME280;23843;51.320;12.340;2023-08-17T00:19:56;100625.41;;;22.16;100.00
38038;BME280;23843;51.320;12.340;2023-08-17T00:22:23;100619.88;;;22.18;100.00
38038;BME280;23843;51.320;12.340;2023-08-17T00:24:48;100617.16;;;22.18;100.00
38038;BME280;23843;51.320;12.340;2023-08-17T00:27:14;100607.53;;;22.15;100.00
38038;BME280;23843;51.320;12.340;2023-08-17T00:29:39;100599.44;;;22.15;100.00
38038;BME280;23843;51.320;12.340;2023-08-17T00:32:05;100600.28;;;22.16;100.00
38038;BME280;23843;51.320;12.340;2023-08-17T00:34:30;100599.44;;;22.15;100.00
38038;BME280;23843;51.320;12.340;2023-08-17T00:36:56;100589.47;;;22.16;100.00
38038;BME280;23843;51.320;12.340;2023-08-17T00:39:23;100586.97;;;22.14;100.00
38038;BME280;23843;51.320;12.340;2023-08-17T00:41:48;100587.22;;;22.11;100.00
38038;BME280;23843;51.320;12.340;2023-08-17T00:44:14;100586.53;;;22.09;100.00
38038;BME280;23843;51.320;12.340;2023-08-17T00:46:39;100581.06;;;22.01;100.00
38038;BME280;23843;51.320;12.340;2023-08-17T00:49:05;100576.50;;;22.01;100.00
38038;BME280;23843;51.320;12.340;2023-08-17T00:51:31;100578.22;;;22.02;100.00
38038;BME280;23843;51.320;12.340;2023-08-17T00:53:58;100595.13;;;22.05;100.00
38038;BME280;23843;51.320;12.340;2023-08-17T00:56:26;100595.78;;;22.07;100.00
38038;BME280;23843;51.320;12.340;2023-08-17T00:58:52;100592.25;;;22.06;100.00
38038;BME280;23843;51.320;12.340;2023-08-17T01:01:19;100591.25;;;22.07;100.00
38038;BME280;23843;51.320;12.340;2023-08-17T01:03:44;100592.94;;;22.08;100.00
38038;BME280;23843;51.320;12.340;2023-08-17T01:06:10;100596.66;;;22.07;100.00
38038;BME280;23843;51.320;12.340;2023-08-17T01:08:36;100596.47;;;22.09;100.00
38038;BME280;23843;51.320;12.340;2023-08-17T01:11:10;100602.06;;;22.07;100.00
38038;BME280;23843;51.320;12.340;2023-08-17T01:13:45;100606.75;;;22.05;100.00
38038;BME280;23843;51.320;12.340;2023-08-17T01:16:16;100602.31;;;22.04;100.00
38038;BME280;23843;51.320;12.340;2023-08-17T01:18:47;100593.56;;;22.02;100.00
38038;BME280;23843;51.320;12.340;2023-08-17T01:21:14;100589.00;;;22.02;100.00
38038;BME280;23843;51.320;12.340;2023-08-17T01:23:45;100582.47;;;22.05;100.00
38038;BME280;23843;51.320;12.340;2023-08-17T01:26:11;100588.00;;;22.04;100.00
38038;BME280;23843;51.320;12.340;2023-08-17T01:28:36;100582.78;;;22.02;100.00
38038;BME280;23843;51.320;12.340;2023-08-17T01:31:07;100582.91;;;22.00;100.00
38038;BME280;23843;51.320;12.340;2023-08-17T01:33:35;100583.81;;;21.91;100.00
38038;BME280;23843;51.320;12.340;2023-08-17T01:36:11;100590.22;;;21.90;100.00
38038;BME280;23843;51.320;12.340;2023-08-17T01:38:40;100585.28;;;21.86;100.00
38038;BME280;23843;51.320;12.340;2023-08-17T01:41:09;100584.44;;;21.85;100.00
38038;BME280;23843;51.320;12.340;2023-08-17T01:43:35;100589.56;;;21.78;100.00
38038;BME280;23843;51.320;12.340;2023-08-17T01:46:00;100589.47;;;21.70;100.00
38038;BME280;23843;51.320;12.340;2023-08-17T01:48:26;100598.41;;;21.71;100.00
38038;BME280;23843;51.320;12.340;2023-08-17T01:53:17;100612.44;;;21.74;100.00
38038;BME280;23843;51.320;12.340;2023-08-17T01:55:42;100623.22;;;21.74;100.00
38038;BME280;23843;51.320;12.340;2023-08-17T01:58:09;100668.34;;;21.72;100.00
38038;BME280;23843;51.320;12.340;2023-08-17T02:00:34;100687.94;;;21.74;100.00
38038;BME280;23843;51.320;12.340;2023-08-17T02:03:00;100689.34;;;21.78;100.00
38038;BME280;23843;51.320;12.340;2023-08-17T02:05:25;100697.53;;;21.87;100.00
38038;BME280;23843;51.320;12.340;2023-08-17T02:07:51;100680.78;;;21.93;100.00
38038;BME280;23843;51.320;12.340;2023-08-17T02:10:16;100686.56;;;21.98;100.00
38038;BME280;23843;51.320;12.340;2023-08-17T02:12:42;100695.38;;;22.00;100.00
38038;BME280;23843;51.320;12.340;2023-08-17T02:15:09;100695.19;;;22.01;100.00
38038;BME280;23843;51.320;12.340;2023-08-17T02:17:35;100694.94;;;22.05;100.00
38038;BME280;23843;51.320;12.340;2023-08-17T02:20:00;100710.94;;;22.06;100.00
38038;BME280;23843;51.320;12.340;2023-08-17T02:22:26;100706.25;;;22.08;100.00
38038;BME280;23843;51.320;12.340;2023-08-17T02:24:51;100708.81;;;22.10;100.00
38038;BME280;23843;51.320;12.340;2023-08-17T02:27:16;100709.97;;;22.07;100.00
38038;BME280;23843;51.320;12.340;2023-08-17T02:29:42;100732.97;;;22.01;100.00
38038;BME280;23843;51.320;12.340;2023-08-17T02:32:09;100735.28;;;21.96;100.00
38038;BME280;23843;51.320;12.340;2023-08-17T02:34:34;100735.56;;;21.93;100.00
38038;BME280;23843;51.320;12.340;2023-08-17T02:37:00;100726.94;;;21.90;100.00
38038;BME280;23843;51.320;12.340;2023-08-17T02:39:25;100733.44;;;21.87;100.00
38038;BME280;23843;51.320;12.340;2023-08-17T02:41:51;100742.69;;;21.85;100.00
38038;BME280;23843;51.320;12.340;2023-08-17T02:44:16;100724.09;;;21.82;100.00
38038;BME280;23843;51.320;12.340;2023-08-17T02:46:41;100719.84;;;21.79;100.00
38038;BME280;23843;51.320;12.340;2023-08-17T02:49:08;100735.63;;;21.74;100.00
38038;BME280;23843;51.320;12.340;2023-08-17T02:51:34;100738.75;;;21.69;100.00
38038;BME280;23843;51.320;12.340;2023-08-17T02:53:59;100728.56;;;21.63;100.00
38038;BME280;23843;51.320;12.340;2023-08-17T02:56:25;100730.69;;;21.59;100.00
38038;BME280;23843;51.320;12.340;2023-08-17T02:58:50;100725.44;;;21.58;100.00
38038;BME280;23843;51.320;12.340;2023-08-17T03:01:16;100712.41;;;21.53;100.00
38038;BME280;23843;51.320;12.340;2023-08-17T03:03:41;100706.44;;;21.50;100.00
38038;BME280;23843;51.320;12.340;2023-08-17T03:06:08;100711.44;;;21.45;100.00
38038;BME280;23843;51.320;12.340;2023-08-17T03:08:33;100716.28;;;21.41;100.00
38038;BME280;23843;51.320;12.340;2023-08-17T03:10:59;100733.41;;;21.30;100.00
38038;BME280;23843;51.320;12.340;2023-08-17T03:13:24;100738.97;;;21.19;100.00
38038;BME280;23843;51.320;12.340;2023-08-17T03:15:50;100741.06;;;21.15;100.00
38038;BME280;23843;51.320;12.340;2023-08-17T03:18:15;100735.97;;;21.12;100.00
38038;BME280;23843;51.320;12.340;2023-08-17T03:20:41;100715.25;;;21.13;100.00
38038;BME280;23843;51.320;12.340;2023-08-17T03:23:08;100679.53;;;21.11;100.00
38038;BME280;23843;51.320;12.340;2023-08-17T03:25:33;100677.25;;;21.06;100.00
38038;BME280;23843;51.320;12.340;2023-08-17T03:27:59;100680.69;;;20.99;100.00
38038;BME280;23843;51.320;12.340;2023-08-17T03:30:24;100688.91;;;20.87;100.00
38038;BME280;23843;51.320;12.340;2023-08-17T03:32:49;100680.13;;;20.85;100.00
38038;BME280;23843;51.320;12.340;2023-08-17T03:35:15;100665.94;;;20.83;100.00
38038;BME280;23843;51.320;12.340;2023-08-17T03:37:40;100663.38;;;20.72;100.00
38038;BME280;23843;51.320;12.340;2023-08-17T03:40:08;100660.41;;;20.65;100.00
38038;BME280;23843;51.320;12.340;2023-08-17T03:42:33;100646.38;;;20.62;100.00
38038;BME280;23843;51.320;12.340;2023-08-17T03:44:59;100654.47;;;20.62;100.00
38038;BME280;23843;51.320;12.340;2023-08-17T03:47:24;100641.00;;;20.62;100.00
38038;BME280;23843;51.320;12.340;2023-08-17T03:49:51;100651.78;;;20.62;100.00
38038;BME280;23843;51.320;12.340;2023-08-17T03:52:17;100655.72;;;20.58;100.00
38038;BME280;23843;51.320;12.340;2023-08-17T03:54:42;100667.31;;;20.48;100.00
38038;BME280;23843;51.320;12.340;2023-08-17T03:57:09;100677.63;;;20.43;100.00
38038;BME280;23843;51.320;12.340;2023-08-17T03:59:34;100681.72;;;20.38;100.00
38038;BME280;23843;51.320;12.340;2023-08-17T04:02:00;100709.03;;;20.33;100.00
38038;BME280;23843;51.320;12.340;2023-08-17T04:04:25;100751.66;;;20.28;100.00
38038;BME280;23843;51.320;12.340;2023-08-17T04:06:51;100774.47;;;20.34;100.00
38038;BME280;23843;51.320;12.340;2023-08-17T04:09:16;100785.69;;;20.39;100.00
38038;BME280;23843;51.320;12.340;2023-08-17T04:11:42;100769.13;;;20.43;100.00
38038;BME280;23843;51.320;12.340;2023-08-17T04:14:28;100774.97;;;20.48;100.00
38038;BME280;23843;51.320;12.340;2023-08-17T04:16:54;100743.34;;;20.50;100.00
38038;BME280;23843;51.320;12.340;2023-08-17T04:19:19;100731.91;;;20.48;100.00
38038;BME280;23843;51.320;12.340;2023-08-17T04:21:45;100739.97;;;20.48;100.00
38038;BME280;23843;51.320;12.340;2023-08-17T04:24:10;100752.81;;;20.35;100.00
38038;BME280;23843;51.320;12.340;2023-08-17T04:26:36;100738.94;;;20.30;100.00
38038;BME280;23843;51.320;12.340;2023-08-17T04:29:01;100734.78;;;20.26;100.00
38038;BME280;23843;51.320;12.340;2023-08-17T04:31:28;100743.69;;;20.17;100.00
38038;BME280;23843;51.320;12.340;2023-08-17T04:33:53;100737.97;;;20.00;100.00
38038;BME280;23843;51.320;12.340;2023-08-17T04:36:19;100725.09;;;20.04;100.00
38038;BME280;23843;51.320;12.340;2023-08-17T04:38:44;100726.66;;;20.06;100.00
38038;BME280;23843;51.320;12.340;2023-08-17T04:41:10;100722.53;;;20.02;100.00
38038;BME280;23843;51.320;12.340;2023-08-17T04:43:35;100723.78;;;19.98;100.00
38038;BME280;23843;51.320;12.340;2023-08-17T04:46:01;100702.28;;;19.98;100.00
38038;BME280;23843;51.320;12.340;2023-08-17T04:48:28;100707.09;;;19.95;100.00
38038;BME280;23843;51.320;12.340;2023-08-17T04:50:53;100706.38;;;19.93;100.00
38038;BME280;23843;51.320;12.340;2023-08-17T04:53:18;100702.69;;;19.94;100.00
38038;BME280;23843;51.320;12.340;2023-08-17T04:55:44;100690.53;;;19.99;100.00
38038;BME280;23843;51.320;12.340;2023-08-17T04:58:09;100690.97;;;20.04;100.00
38038;BME280;23843;51.320;12.340;2023-08-17T05:00:35;100684.19;;;20.00;100.00
38038;BME280;23843;51.320;12.340;2023-08-17T05:03:00;100678.53;;;20.03;100.00
38038;BME280;23843;51.320;12.340;2023-08-17T05:05:27;100672.00;;;20.06;100.00
38038;BME280;23843;51.320;12.340;2023-08-17T05:07:53;100673.69;;;19.97;100.00
38038;BME280;23843;51.320;12.340;2023-08-17T05:10:18;100668.56;;;19.94;100.00
38038;BME280;23843;51.320;12.340;2023-08-17T05:12:44;100666.44;;;19.88;100.00
38038;BME280;23843;51.320;12.340;2023-08-17T05:15:09;100671.22;;;19.84;100.00
38038;BME280;23843;51.320;12.340;2023-08-17T05:17:35;100657.22;;;19.81;100.00
38038;BME280;23843;51.320;12.340;2023-08-17T05:20:00;100658.66;;;19.85;100.00
38038;BME280;23843;51.320;12.340;2023-08-17T05:22:27;100648.75;;;19.85;100.00
38038;BME280;23843;51.320;12.340;2023-08-17T05:24:53;100655.50;;;19.80;100.00
38038;BME280;23843;51.320;12.340;2023-08-17T05:27:18;100651.84;;;19.81;100.00
38038;BME280;23843;51.320;12.340;2023-08-17T05:29:44;100646.78;;;19.87;100.00
38038;BME280;23843;51.320;12.340;2023-08-17T05:32:09;100647.34;;;19.91;100.00
38038;BME280;23843;51.320;12.340;2023-08-17T05:34:34;100639.88;;;19.95;100.00
38038;BME280;23843;51.320;12.340;2023-08-17T05:37:00;100637.75;;;19.98;100.00
38038;BME280;23843;51.320;12.340;2023-08-17T05:39:27;100632.38;;;19.98;100.00
38038;BME280;23843;51.320;12.340;2023-08-17T05:41:52;100642.28;;;19.98;100.00
38038;BME280;23843;51.320;12.340;2023-08-17T05:44:18;100653.03;;;19.98;100.00
38038;BME280;23843;51.320;12.340;2023-08-17T05:46:43;100652.31;;;19.96;100.00
38038;BME280;23843;51.320;12.340;2023-08-17T05:49:09;100648.34;;;19.90;100.00
38038;BME280;23843;51.320;12.340;2023-08-17T05:51:34;100653.28;;;19.85;100.00
38038;BME280;23843;51.320;12.340;2023-08-17T05:54:00;100646.91;;;19.86;100.00
38038;BME280;23843;51.320;12.340;2023-08-17T05:56:26;100643.94;;;19.89;100.00
38038;BME280;23843;51.320;12.340;2023-08-17T05:58:52;100643.50;;;19.84;100.00
38038;BME280;23843;51.320;12.340;2023-08-17T06:01:17;100644.66;;;19.91;100.00
38038;BME280;23843;51.320;12.340;2023-08-17T06:03:43;100627.00;;;19.98;100.00
38038;BME280;23843;51.320;12.340;2023-08-17T06:06:09;100623.03;;;20.02;100.00
38038;BME280;23843;51.320;12.340;2023-08-17T06:08:34;100618.81;;;20.09;100.00
38038;BME280;23843;51.320;12.340;2023-08-17T06:11:00;100618.84;;;20.19;100.00
38038;BME280;23843;51.320;12.340;2023-08-17T06:13:27;100610.63;;;20.21;100.00
38038;BME280;23843;51.320;12.340;2023-08-17T06:15:52;100608.34;;;20.26;100.00
38038;BME280;23843;51.320;12.340;2023-08-17T06:18:18;100617.44;;;20.35;100.00
38038;BME280;23843;51.320;12.340;2023-08-17T06:20:44;100615.88;;;20.42;100.00
38038;BME280;23843;51.320;12.340;2023-08-17T06:23:10;100615.72;;;20.43;100.00
38038;BME280;23843;51.320;12.340;2023-08-17T06:25:35;100616.03;;;20.50;100.00
38038;BME280;23843;51.320;12.340;2023-08-17T06:28:01;100612.91;;;20.55;100.00
38038;BME280;23843;51.320;12.340;2023-08-17T06:30:28;100613.97;;;20.63;100.00
38038;BME280;23843;51.320;12.340;2023-08-17T06:32:53;100610.38;;;20.72;100.00
38038;BME280;23843;51.320;12.340;2023-08-17T06:35:19;100615.91;;;20.90;100.00
38038;BME280;23843;51.320;12.340;2023-08-17T06:37:44;100614.16;;;21.09;100.00
38038;BME280;23843;51.320;12.340;2023-08-17T06:40:11;100612.28;;;21.38;100.00
38038;BME280;23843;51.320;12.340;2023-08-17T06:42:37;100626.09;;;21.73;100.00
38038;BME280;23843;51.320;12.340;2023-08-17T06:45:03;100628.22;;;21.97;100.00
38038;BME280;23843;51.320;12.340;2023-08-17T06:47:30;100634.22;;;22.46;100.00
38038;BME280;23843;51.320;12.340;2023-08-17T06:49:55;100633.84;;;23.21;100.00
38038;BME280;23843;51.320;12.340;2023-08-17T06:52:21;100632.59;;;23.93;100.00
38038;BME280;23843;51.320;12.340;2023-08-17T06:54:46;100630.41;;;24.72;100.00
38038;BME280;23843;51.320;12.340;2023-08-17T06:57:12;100622.06;;;26.03;100.00
38038;BME280;23843;51.320;12.340;2023-08-17T06:59:37;100627.22;;;25.82;100.00
38038;BME280;23843;51.320;12.340;2023-08-17T07:02:03;100640.06;;;25.40;100.00
38038;BME280;23843;51.320;12.340;2023-08-17T07:04:30;100662.25;;;25.11;100.00
38038;BME280;23843;51.320;12.340;2023-08-17T07:06:55;100665.44;;;24.49;100.00
38038;BME280;23843;51.320;12.340;2023-08-17T07:09:21;100674.69;;;23.96;100.00
38038;BME280;23843;51.320;12.340;2023-08-17T07:11:46;100677.22;;;23.63;100.00
38038;BME280;23843;51.320;12.340;2023-08-17T07:14:12;100674.19;;;23.40;100.00
38038;BME280;23843;51.320;12.340;2023-08-17T07:16:37;100669.16;;;23.19;100.00
38038;BME280;23843;51.320;12.340;2023-08-17T07:19:03;100665.75;;;22.99;100.00
38038;BME280;23843;51.320;12.340;2023-08-17T07:21:30;100651.41;;;22.99;100.00
38038;BME280;23843;51.320;12.340;2023-08-17T07:23:56;100632.91;;;22.68;100.00
38038;BME280;23843;51.320;12.340;2023-08-17T07:26:21;100637.13;;;22.53;100.00
38038;BME280;23843;51.320;12.340;2023-08-17T07:28:47;100634.50;;;22.43;100.00
38038;BME280;23843;51.320;12.340;2023-08-17T07:31:12;100638.28;;;22.50;100.00
38038;BME280;23843;51.320;12.340;2023-08-17T07:33:38;100640.28;;;22.48;100.00
38038;BME280;23843;51.320;12.340;2023-08-17T07:36:04;100647.69;;;22.46;100.00
38038;BME280;23843;51.320;12.340;2023-08-17T07:38:31;100646.69;;;22.47;100.00
38038;BME280;23843;51.320;12.340;2023-08-17T07:40:57;100661.47;;;22.43;100.00
38038;BME280;23843;51.320;12.340;2023-08-17T07:43:22;100661.41;;;22.35;100.00
38038;BME280;23843;51.320;12.340;2023-08-17T07:45:53;100658.72;;;22.35;100.00
38038;BME280;23843;51.320;12.340;2023-08-17T07:48:18;100669.13;;;22.30;100.00
38038;BME280;23843;51.320;12.340;2023-08-17T07:50:48;100661.59;;;22.23;100.00
38038;BME280;23843;51.320;12.340;2023-08-17T07:53:14;100656.59;;;22.29;100.00
38038;BME280;23843;51.320;12.340;2023-08-17T07:55:40;100658.56;;;22.36;100.00
38038;BME280;23843;51.320;12.340;2023-08-17T07:58:06;100655.00;;;22.36;100.00
38038;BME280;23843;51.320;12.340;2023-08-17T08:00:31;100653.09;;;22.18;100.00
38038;BME280;23843;51.320;12.340;2023-08-17T08:02:57;100647.47;;;22.12;100.00
38038;BME280;23843;51.320;12.340;2023-08-17T08:05:22;100652.31;;;22.08;100.00
38038;BME280;23843;51.320;12.340;2023-08-17T08:07:48;100643.19;;;22.09;100.00
38038;BME280;23843;51.320;12.340;2023-08-17T08:10:13;100652.59;;;22.05;100.00
38038;BME280;23843;51.320;12.340;2023-08-17T08:12:40;100650.56;;;22.17;100.00
38038;BME280;23843;51.320;12.340;2023-08-17T08:15:07;100657.63;;;22.28;100.00
38038;BME280;23843;51.320;12.340;2023-08-17T08:17:32;100671.88;;;22.65;100.00
38038;BME280;23843;51.320;12.340;2023-08-17T08:19:58;100658.34;;;23.01;100.00
38038;BME280;23843;51.320;12.340;2023-08-17T08:22:23;100665.38;;;23.64;100.00
38038;BME280;23843;51.320;12.340;2023-08-17T08:24:49;100647.59;;;24.30;100.00
38038;BME280;23843;51.320;12.340;2023-08-17T08:27:14;100642.25;;;24.47;100.00
38038;BME280;23843;51.320;12.340;2023-08-17T08:29:41;100643.28;;;24.54;100.00
38038;BME280;23843;51.320;12.340;2023-08-17T08:32:06;100640.63;;;25.19;100.00
38038;BME280;23843;51.320;12.340;2023-08-17T08:34:32;100644.13;;;25.45;100.00
38038;BME280;23843;51.320;12.340;2023-08-17T08:36:57;100638.88;;;26.30;100.00
38038;BME280;23843;51.320;12.340;2023-08-17T08:39:25;100634.06;;;27.92;100.00
38038;BME280;23843;51.320;12.340;2023-08-17T08:41:50;100642.28;;;29.08;100.00
38038;BME280;23843;51.320;12.340;2023-08-17T08:44:16;100641.03;;;29.10;95.53
38038;BME280;23843;51.320;12.340;2023-08-17T08:46:44;100644.59;;;28.89;97.83
38038;BME280;23843;51.320;12.340;2023-08-17T08:49:11;100648.69;;;29.00;94.96
38038;BME280;23843;51.320;12.340;2023-08-17T08:51:41;100636.44;;;29.39;87.15
38038;BME280;23843;51.320;12.340;2023-08-17T08:54:08;100647.19;;;29.19;87.47
38038;BME280;23843;51.320;12.340;2023-08-17T08:56:38;100634.94;;;29.36;84.67
38038;BME280;23843;51.320;12.340;2023-08-17T08:59:05;100634.44;;;30.37;79.72
38038;BME280;23843;51.320;12.340;2023-08-17T09:01:31;100635.13;;;30.66;83.63
38038;BME280;23843;51.320;12.340;2023-08-17T09:04:00;100629.03;;;30.02;83.48
38038;BME280;23843;51.320;12.340;2023-08-17T09:06:26;100631.16;;;30.07;74.21
38038;BME280;23843;51.320;12.340;2023-08-17T09:08:52;100628.81;;;30.79;74.48
38038;BME280;23843;51.320;12.340;2023-08-17T09:11:18;100632.19;;;30.61;81.17
38038;BME280;23843;51.320;12.340;2023-08-17T09:13:43;100635.03;;;29.84;69.36
38038;BME280;23843;51.320;12.340;2023-08-17T09:16:09;100632.00;;;29.66;69.67
38038;BME280;23843;51.320;12.340;2023-08-17T09:18:34;100635.84;;;29.43;80.37
38038;BME280;23843;51.320;12.340;2023-08-17T09:21:02;100639.28;;;29.24;76.88
38038;BME280;23843;51.320;12.340;2023-08-17T09:23:27;100653.44;;;29.13;73.88
38038;BME280;23843;51.320;12.340;2023-08-17T09:25:53;100641.34;;;29.00;82.12
38038;BME280;23843;51.320;12.340;2023-08-17T09:28:19;100631.56;;;29.34;75.19
38038;BME280;23843;51.320;12.340;2023-08-17T09:30:52;100629.06;;;30.16;70.52
38038;BME280;23843;51.320;12.340;2023-08-17T09:33:18;100617.28;;;30.02;71.05
38038;BME280;23843;51.320;12.340;2023-08-17T09:35:43;100621.53;;;30.18;75.08
38038;BME280;23843;51.320;12.340;2023-08-17T09:38:10;100626.03;;;30.39;77.68
38038;BME280;23843;51.320;12.340;2023-08-17T09:40:36;100623.19;;;30.93;73.04
38038;BME280;23843;51.320;12.340;2023-08-17T09:43:02;100621.69;;;31.51;67.00
38038;BME280;23843;51.320;12.340;2023-08-17T09:45:27;100616.16;;;32.23;56.40
38038;BME280;23843;51.320;12.340;2023-08-17T09:47:53;100615.41;;;32.40;61.68
38038;BME280;23843;51.320;12.340;2023-08-17T09:50:21;100613.28;;;33.31;60.92
38038;BME280;23843;51.320;12.340;2023-08-17T09:52:47;100602.91;;;34.07;76.36
38038;BME280;23843;51.320;12.340;2023-08-17T09:55:14;61191.53;;;-145.91;100.00
38038;BME280;23843;51.320;12.340;2023-08-17T09:57:40;100604.28;;;33.98;50.42
38038;BME280;23843;51.320;12.340;2023-08-17T10:00:07;100608.78;;;33.37;55.18
38038;BME280;23843;51.320;12.340;2023-08-17T10:02:33;100612.31;;;32.94;52.65
38038;BME280;23843;51.320;12.340;2023-08-17T10:05:00;100601.84;;;32.52;58.14
38038;BME280;23843;51.320;12.340;2023-08-17T10:07:28;100601.53;;;32.35;61.23
38038;BME280;23843;51.320;12.340;2023-08-17T10:10:00;100604.66;;;32.01;67.70
38038;BME280;23843;51.320;12.340;2023-08-17T10:12:34;100600.09;;;31.81;59.15
38038;BME280;23843;51.320;12.340;2023-08-17T10:15:04;100601.06;;;31.42;60.03
38038;BME280;23843;51.320;12.340;2023-08-17T10:17:37;100601.50;;;30.85;60.30
38038;BME280;23843;51.320;12.340;2023-08-17T10:20:06;100596.22;;;30.70;63.39
38038;BME280;23843;51.320;12.340;2023-08-17T10:22:36;100597.84;;;30.45;65.49
38038;BME280;23843;51.320;12.340;2023-08-17T10:25:05;100598.06;;;30.37;68.09
38038;BME280;23843;51.320;12.340;2023-08-17T10:27:35;100594.22;;;30.24;66.82
38038;BME280;23843;51.320;12.340;2023-08-17T10:30:01;100592.94;;;30.20;68.42
38038;BME280;23843;51.320;12.340;2023-08-17T10:32:27;100580.72;;;30.16;68.25
38038;BME280;23843;51.320;12.340;2023-08-17T10:34:53;100590.09;;;29.87;66.67
38038;BME280;23843;51.320;12.340;2023-08-17T10:37:20;100581.25;;;29.78;71.49
38038;BME280;23843;51.320;12.340;2023-08-17T10:39:46;100580.41;;;29.84;72.82
38038;BME280;23843;51.320;12.340;2023-08-17T10:42:13;100579.75;;;29.76;72.40
38038;BME280;23843;51.320;12.340;2023-08-17T10:44:42;100586.09;;;29.90;72.33
38038;BME280;23843;51.320;12.340;2023-08-17T10:47:21;100578.75;;;29.49;69.88
38038;BME280;23843;51.320;12.340;2023-08-17T10:49:48;100582.47;;;29.34;72.88
38038;BME280;23843;51.320;12.340;2023-08-17T10:52:13;100575.53;;;29.38;73.82
38038;BME280;23843;51.320;12.340;2023-08-17T10:54:40;100571.59;;;29.48;73.46
38038;BME280;23843;51.320;12.340;2023-08-17T10:57:29;100566.28;;;29.33;74.01
38038;BME280;23843;51.320;12.340;2023-08-17T11:00:22;100565.25;;;29.40;75.86
38038;BME280;23843;51.320;12.340;2023-08-17T11:02:55;100554.81;;;29.44;75.01
38038;BME280;23843;51.320;12.340;2023-08-17T11:05:38;100552.94;;;29.51;74.61
38038;BME280;23843;51.320;12.340;2023-08-17T11:08:04;100567.84;;;29.49;75.05
38038;BME280;23843;51.320;12.340;2023-08-17T11:10:30;100560.66;;;29.41;75.33
38038;BME280;23843;51.320;12.340;2023-08-17T11:12:56;100568.75;;;29.28;70.82
38038;BME280;23843;51.320;12.340;2023-08-17T11:15:24;100567.72;;;29.00;69.78
38038;BME280;23843;51.320;12.340;2023-08-17T11:17:49;100566.97;;;28.85;73.34
38038;BME280;23843;51.320;12.340;2023-08-17T11:20:15;100569.13;;;28.96;74.97
38038;BME280;23843;51.320;12.340;2023-08-17T11:22:41;100572.53;;;28.98;73.45
38038;BME280;23843;51.320;12.340;2023-08-17T11:25:07;100579.97;;;28.83;70.44
38038;BME280;23843;51.320;12.340;2023-08-17T11:27:33;100577.09;;;28.70;71.58
38038;BME280;23843;51.320;12.340;2023-08-17T11:29:59;100563.19;;;28.58;73.68
38038;BME280;23843;51.320;12.340;2023-08-17T11:32:25;100567.78;;;28.57;74.21
38038;BME280;23843;51.320;12.340;2023-08-17T11:34:51;100554.13;;;28.79;74.10
38038;BME280;23843;51.320;12.340;2023-08-17T11:37:17;100556.09;;;28.92;74.94
38038;BME280;23843;51.320;12.340;2023-08-17T11:39:42;100553.09;;;29.08;73.98
38038;BME280;23843;51.320;12.340;2023-08-17T11:42:08;100554.59;;;28.89;70.39
38038;BME280;23843;51.320;12.340;2023-08-17T11:44:34;100561.88;;;28.75;72.17
38038;BME280;23843;51.320;12.340;2023-08-17T11:46:59;100566.84;;;28.72;73.68
38038;BME280;23843;51.320;12.340;2023-08-17T11:49:26;100546.59;;;28.81;73.33
38038;BME280;23843;51.320;12.340;2023-08-17T11:51:51;100545.34;;;28.84;72.46
38038;BME280;23843;51.320;12.340;2023-08-17T11:54:17;100548.50;;;28.87;72.20
38038;BME280;23843;51.320;12.340;2023-08-17T11:56:42;100552.28;;;28.43;72.45
38038;BME280;23843;51.320;12.340;2023-08-17T11:59:09;100546.47;;;28.25;76.01
38038;BME280;23843;51.320;12.340;2023-08-17T12:01:35;100546.13;;;28.49;77.62
38038;BME280;23843;51.320;12.340;2023-08-17T12:04:04;100536.75;;;28.80;75.97
38038;BME280;23843;51.320;12.340;2023-08-17T12:06:31;100543.59;;;29.04;75.93
38038;BME280;23843;51.320;12.340;2023-08-17T12:08:57;100539.13;;;28.96;72.64
38038;BME280;23843;51.320;12.340;2023-08-17T12:11:23;100531.22;;;28.73;72.27
38038;BME280;23843;51.320;12.340;2023-08-17T12:13:49;100532.25;;;28.72;74.49
38038;BME280;23843;51.320;12.340;2023-08-17T12:16:15;100533.25;;;28.65;75.43
38038;BME280;23843;51.320;12.340;2023-08-17T12:18:43;100527.84;;;28.71;75.78
38038;BME280;23843;51.320;12.340;2023-08-17T12:21:09;100528.03;;;28.70;76.10
38038;BME280;23843;51.320;12.340;2023-08-17T12:23:36;100512.56;;;28.77;76.25
38038;BME280;23843;51.320;12.340;2023-08-17T12:26:01;100522.06;;;28.81;74.67
38038;BME280;23843;51.320;12.340;2023-08-17T12:28:27;100522.03;;;28.53;75.19
38038;BME280;23843;51.320;12.340;2023-08-17T12:30:59;100522.53;;;28.42;76.10